createdAt,value
2023-02-11T00:01:25.922Z,20.38
2023-02-11T00:03:53.701Z,20.85
2023-02-11T00:06:20.960Z,10.52
2023-02-11T00:08:48.233Z,20.87
2023-02-11T00:11:18.104Z,25.80
2023-02-11T00:13:46.120Z,16.92
2023-02-11T00:16:17.004Z,20.48
2023-02-11T00:18:44.461Z,19.42
2023-02-11T00:21:20.693Z,25.70
2023-02-11T00:23:48.386Z,23.77
2023-02-11T00:26:19.772Z,12.70
2023-02-11T00:28:48.302Z,21.45
2023-02-11T00:31:16.349Z,16.38
2023-02-11T00:33:44.219Z,24.07
2023-02-11T00:36:19.942Z,14.50
2023-02-11T00:38:48.636Z,22.33
2023-02-11T00:41:16.235Z,21.58
2023-02-11T00:43:43.443Z,20.33
2023-02-11T00:46:10.518Z,22.67
2023-02-11T00:48:38.046Z,23.35
2023-02-11T00:51:05.425Z,13.63
2023-02-11T00:53:33.151Z,20.10
2023-02-11T00:56:00.977Z,24.05
2023-02-11T00:58:28.845Z,19.77
2023-02-11T01:00:56.305Z,21.88
2023-02-11T01:03:24.766Z,18.33
2023-02-11T01:05:52.271Z,23.98
2023-02-11T01:08:19.982Z,15.43
2023-02-11T01:10:54.600Z,24.13
2023-02-11T01:13:22.516Z,15.27
2023-02-11T01:15:50.396Z,16.45
2023-02-11T01:18:18.098Z,23.23
2023-02-11T01:20:45.631Z,17.77
2023-02-11T01:23:12.891Z,15.90
2023-02-11T01:25:40.295Z,19.77
2023-02-11T01:28:07.505Z,26.27
2023-02-11T01:30:34.344Z,20.25
2023-02-11T01:33:01.658Z,15.07
2023-02-11T01:35:30.170Z,20.67
2023-02-11T01:37:57.071Z,13.85
2023-02-11T01:40:24.769Z,17.85
2023-02-11T01:42:52.085Z,17.60
2023-02-11T01:45:50.135Z,23.23
2023-02-11T01:48:26.901Z,14.43
2023-02-11T01:51:01.259Z,15.82
2023-02-11T01:53:48.618Z,15.13
2023-02-11T01:56:48.696Z,15.48
2023-02-11T01:59:30.620Z,18.60
2023-02-11T02:02:03.454Z,18.80
2023-02-11T02:04:35.915Z,20.17
2023-02-11T02:07:10.617Z,26.40
2023-02-11T02:09:41.741Z,20.27
2023-02-11T02:12:09.078Z,14.13
2023-02-11T02:14:40.532Z,21.70
2023-02-11T02:17:23.850Z,21.58
2023-02-11T02:20:19.248Z,21.23
2023-02-11T02:23:28.826Z,16.95
2023-02-11T02:25:55.981Z,27.10
2023-02-11T02:29:00.081Z,17.10
2023-02-11T02:31:27.375Z,14.15
2023-02-11T02:34:16.950Z,17.20
2023-02-11T02:36:50.547Z,18.15
2023-02-11T02:39:34.353Z,18.67
2023-02-11T02:42:01.648Z,15.70
2023-02-11T02:44:29.766Z,24.27
2023-02-11T02:46:57.187Z,17.75
2023-02-11T02:49:24.434Z,21.65
2023-02-11T02:52:11.270Z,16.95
2023-02-11T02:54:56.771Z,19.57
2023-02-11T02:57:50.604Z,24.23
2023-02-11T03:00:59.077Z,25.70
2023-02-11T03:03:45.182Z,17.10
2023-02-11T03:06:12.358Z,16.98
2023-02-11T03:08:55.228Z,14.67
2023-02-11T03:11:23.167Z,37.40
2023-02-11T03:13:52.292Z,25.13
2023-02-11T03:16:25.494Z,20.27
2023-02-11T03:18:59.266Z,19.15
2023-02-11T03:21:28.084Z,21.03
2023-02-11T03:24:01.441Z,25.88
2023-02-11T03:26:52.677Z,24.33
2023-02-11T03:29:38.853Z,24.98
2023-02-11T03:32:18.174Z,21.85
2023-02-11T03:35:19.822Z,18.27
2023-02-11T03:37:57.931Z,26.35
2023-02-11T03:40:32.526Z,23.13
2023-02-11T03:43:26.123Z,23.45
2023-02-11T03:45:55.326Z,24.60
2023-02-11T03:48:45.099Z,28.80
2023-02-11T03:51:13.720Z,26.17
2023-02-11T03:53:43.251Z,23.98
2023-02-11T03:56:17.841Z,19.52
2023-02-11T03:58:46.064Z,21.52
2023-02-11T04:01:13.684Z,17.17
2023-02-11T04:03:40.704Z,24.45
2023-02-11T04:06:08.061Z,23.13
2023-02-11T04:08:35.315Z,25.38
2023-02-11T04:11:02.649Z,22.55
2023-02-11T04:13:30.033Z,25.07
2023-02-11T04:15:57.291Z,27.13
2023-02-11T04:18:24.396Z,19.90
2023-02-11T04:20:51.827Z,15.13
2023-02-11T04:23:19.050Z,20.00
2023-02-11T04:25:46.339Z,22.37
2023-02-11T04:28:14.140Z,27.13
2023-02-11T04:30:41.425Z,27.38
2023-02-11T04:33:08.637Z,28.95
2023-02-11T04:35:35.849Z,21.35
2023-02-11T04:38:03.232Z,33.17
2023-02-11T04:40:30.623Z,19.65
2023-02-11T04:42:57.916Z,30.95
2023-02-11T04:45:25.163Z,31.95
2023-02-11T04:47:52.326Z,33.65
2023-02-11T04:50:19.585Z,24.33
2023-02-11T04:52:46.781Z,28.98
2023-02-11T04:55:14.114Z,12.73
2023-02-11T04:57:41.324Z,23.33
2023-02-11T05:00:09.975Z,30.40
2023-02-11T05:02:37.404Z,28.40
2023-02-11T05:05:05.205Z,35.53
2023-02-11T05:07:32.721Z,40.38
2023-02-11T05:09:59.917Z,33.72
2023-02-11T05:12:27.341Z,29.38
2023-02-11T05:14:54.770Z,38.70
2023-02-11T05:17:22.010Z,36.13
2023-02-11T05:19:49.262Z,26.98
2023-02-11T05:22:16.490Z,28.95
2023-02-11T05:24:43.766Z,35.22
2023-02-11T05:27:11.274Z,36.03
2023-02-11T05:29:38.190Z,25.70
2023-02-11T05:32:07.267Z,29.38
2023-02-11T05:34:34.507Z,30.52
2023-02-11T05:37:01.456Z,33.72
2023-02-11T05:39:28.888Z,34.07
2023-02-11T05:41:56.372Z,29.48
2023-02-11T05:44:23.783Z,35.85
2023-02-11T05:46:51.031Z,26.17
2023-02-11T05:49:18.624Z,27.17
2023-02-11T05:51:46.080Z,31.80
2023-02-11T05:54:13.138Z,22.10
2023-02-11T05:56:41.680Z,35.70
2023-02-11T05:59:09.433Z,34.33
2023-02-11T06:01:36.707Z,34.13
2023-02-11T06:04:04.167Z,37.63
2023-02-11T06:06:31.463Z,32.45
2023-02-11T06:08:58.877Z,29.17
2023-02-11T06:11:25.718Z,34.33
2023-02-11T06:13:52.954Z,22.70
2023-02-11T06:16:20.894Z,34.97
2023-02-11T06:18:48.562Z,38.17
2023-02-11T06:21:15.482Z,34.20
2023-02-11T06:23:43.598Z,32.47
2023-02-11T06:26:18.796Z,38.78
2023-02-11T06:28:46.500Z,32.00
2023-02-11T06:31:14.174Z,33.47
2023-02-11T06:33:41.570Z,39.13
2023-02-11T06:36:17.976Z,34.53
2023-02-11T06:38:45.699Z,44.35
2023-02-11T06:41:14.506Z,34.73
2023-02-11T06:43:42.219Z,33.92
2023-02-11T06:46:09.784Z,45.80
2023-02-11T06:48:37.106Z,36.80
2023-02-11T06:51:05.969Z,49.88
2023-02-11T06:53:36.294Z,42.53
2023-02-11T06:56:11.662Z,31.55
2023-02-11T06:58:39.094Z,35.95
2023-02-11T07:01:11.610Z,43.08
2023-02-11T07:03:43.051Z,37.10
2023-02-11T07:06:14.334Z,40.07
2023-02-11T07:08:42.985Z,34.63
2023-02-11T07:11:24.336Z,45.83
2023-02-11T07:13:52.662Z,40.97
2023-02-11T07:16:20.750Z,48.65
2023-02-11T07:18:48.702Z,36.13
2023-02-11T07:21:18.308Z,34.10
2023-02-11T07:23:45.888Z,37.22
2023-02-11T07:26:15.973Z,35.72
2023-02-11T07:28:43.574Z,49.20
2023-02-11T07:31:19.415Z,41.00
2023-02-11T07:33:46.791Z,35.50
2023-02-11T07:36:15.346Z,37.00
2023-02-11T07:38:42.982Z,42.53
2023-02-11T07:41:13.200Z,36.55
2023-02-11T07:43:40.871Z,34.07
2023-02-11T07:46:10.663Z,41.25
2023-02-11T07:48:38.051Z,41.88
2023-02-11T07:51:19.234Z,39.03
2023-02-11T07:53:47.115Z,34.55
2023-02-11T07:56:15.562Z,38.90
2023-02-11T07:58:43.219Z,38.80
2023-02-11T08:01:16.556Z,42.40
2023-02-11T08:03:43.616Z,40.63
2023-02-11T08:06:13.252Z,44.33
2023-02-11T08:08:41.140Z,34.23
2023-02-11T08:11:10.001Z,37.42
2023-02-11T08:13:37.233Z,42.15
2023-02-11T08:16:05.049Z,34.47
2023-02-11T08:18:33.013Z,38.33
2023-02-11T08:21:10.234Z,38.03
2023-02-11T08:23:38.189Z,39.45
2023-02-11T08:26:07.044Z,39.78
2023-02-11T08:28:37.167Z,40.05
2023-02-11T08:31:11.776Z,34.75
2023-02-11T08:33:40.874Z,33.87
2023-02-11T08:36:35.597Z,43.67
2023-02-11T08:39:18.557Z,34.55
2023-02-11T08:41:48.906Z,39.08
2023-02-11T08:44:17.084Z,39.20
2023-02-11T08:46:44.353Z,36.70
2023-02-11T08:49:11.473Z,41.95
2023-02-11T08:51:39.479Z,46.33
2023-02-11T08:54:09.497Z,39.88
2023-02-11T08:56:37.463Z,39.28
2023-02-11T08:59:04.909Z,42.67
2023-02-11T09:01:32.455Z,43.20
2023-02-11T09:04:01.054Z,39.00
2023-02-11T09:06:28.528Z,42.90
2023-02-11T09:08:57.048Z,50.50
2023-02-11T09:11:31.732Z,42.03
2023-02-11T09:13:59.061Z,43.17
2023-02-11T09:16:31.727Z,38.35
2023-02-11T09:19:00.770Z,42.75
2023-02-11T09:21:28.780Z,33.05
2023-02-11T09:23:56.947Z,41.17
2023-02-11T09:26:29.552Z,40.17
2023-02-11T09:28:56.901Z,39.45
2023-02-11T09:31:25.809Z,38.92
2023-02-11T09:33:55.356Z,41.83
2023-02-11T09:36:25.237Z,42.77
2023-02-11T09:38:53.193Z,37.33
2023-02-11T09:41:33.564Z,38.08
2023-02-11T09:44:04.805Z,40.58
2023-02-11T09:46:35.583Z,35.95
2023-02-11T09:49:04.803Z,37.73
2023-02-11T09:51:43.805Z,40.80
2023-02-11T09:54:31.595Z,39.10
2023-02-11T09:56:59.297Z,37.58
2023-02-11T09:59:26.590Z,35.40
2023-02-11T10:02:09.602Z,38.80
2023-02-11T10:04:57.913Z,49.53
2023-02-11T10:07:37.594Z,40.47
2023-02-11T10:10:21.457Z,38.85
2023-02-11T10:13:16.371Z,40.63
2023-02-11T10:15:50.221Z,37.60
2023-02-11T10:18:17.417Z,27.27
2023-02-11T10:20:44.672Z,33.50
2023-02-11T10:23:25.866Z,38.97
2023-02-11T10:25:54.776Z,40.58
2023-02-11T10:28:28.945Z,43.10
2023-02-11T10:31:09.597Z,39.53
2023-02-11T10:33:53.380Z,44.85
2023-02-11T10:36:23.945Z,35.03
2023-02-11T10:38:51.553Z,36.92
2023-02-11T10:41:24.300Z,31.23
2023-02-11T10:43:51.632Z,36.58
2023-02-11T10:46:24.207Z,32.08
2023-02-11T10:48:53.721Z,35.70
2023-02-11T10:51:26.596Z,34.47
2023-02-11T10:54:06.179Z,33.10
2023-02-11T10:56:36.329Z,34.53
2023-02-11T10:59:15.396Z,32.05
2023-02-11T11:02:00.737Z,27.20
2023-02-11T11:04:41.721Z,27.02
2023-02-11T11:07:22.816Z,33.43
2023-02-11T11:10:05.119Z,29.63
2023-02-11T11:12:48.484Z,34.20
2023-02-11T11:15:26.789Z,24.77
2023-02-11T11:18:22.481Z,33.15
2023-02-11T11:21:00.197Z,30.87
2023-02-11T11:23:29.960Z,27.40
2023-02-11T11:26:07.306Z,33.25
2023-02-11T11:28:51.050Z,31.67
2023-02-11T11:31:24.216Z,30.80
2023-02-11T11:33:54.576Z,26.30
2023-02-11T11:36:24.834Z,26.75
2023-02-11T11:39:00.977Z,22.05
2023-02-11T11:41:28.359Z,27.35
2023-02-11T11:44:23.503Z,26.85
2023-02-11T11:47:15.212Z,28.43
2023-02-11T11:49:51.302Z,23.90
2023-02-11T11:52:55.390Z,20.50
2023-02-11T11:55:27.304Z,23.55
2023-02-11T11:57:54.573Z,21.63
2023-02-11T12:00:27.785Z,18.67
2023-02-11T12:03:09.682Z,17.95
2023-02-11T12:05:47.886Z,24.70
2023-02-11T12:08:15.169Z,25.75
2023-02-11T12:10:58.742Z,21.02
2023-02-11T12:14:00.893Z,20.07
2023-02-11T12:16:37.188Z,23.67
2023-02-11T12:19:33.747Z,28.80
2023-02-11T12:22:37.332Z,24.13
2023-02-11T12:25:27.315Z,25.42
2023-02-11T12:28:02.904Z,28.47
2023-02-11T12:30:30.367Z,23.33
2023-02-11T12:33:24.804Z,26.25
2023-02-11T12:36:37.648Z,25.85
2023-02-11T12:39:25.813Z,30.52
2023-02-11T12:42:11.813Z,21.77
2023-02-11T12:44:57.444Z,24.50
2023-02-11T12:47:30.527Z,31.60
2023-02-11T12:50:05.337Z,23.10
2023-02-11T12:52:49.267Z,25.95
2023-02-11T12:55:26.072Z,20.87
2023-02-11T12:57:56.116Z,24.83
2023-02-11T13:00:45.596Z,25.88
2023-02-11T13:03:20.555Z,25.88
2023-02-11T13:05:52.811Z,27.88
2023-02-11T13:08:38.409Z,20.17
2023-02-11T13:11:16.169Z,16.45
2023-02-11T13:13:45.837Z,12.88
2023-02-11T13:16:40.415Z,11.82
2023-02-11T13:19:13.159Z,15.98
2023-02-11T13:22:14.500Z,10.63
2023-02-11T13:24:50.843Z,12.25
2023-02-11T13:27:41.306Z,14.50
2023-02-11T13:30:29.496Z,14.13
2023-02-11T13:32:57.046Z,9.85
2023-02-11T13:35:29.654Z,10.60
2023-02-11T13:37:58.429Z,13.98
2023-02-11T13:40:35.154Z,32.38
2023-02-11T13:43:05.122Z,10.30
2023-02-11T13:45:49.334Z,12.90
2023-02-11T13:48:22.809Z,18.17
2023-02-11T13:50:53.287Z,11.10
2023-02-11T13:53:22.197Z,11.02
2023-02-11T13:55:53.122Z,13.98
2023-02-11T13:58:28.984Z,13.85
2023-02-11T14:00:58.471Z,12.47
2023-02-11T14:03:44.219Z,13.50
2023-02-11T14:06:30.269Z,17.15
2023-02-11T14:09:09.562Z,14.93
2023-02-11T14:11:48.650Z,10.00
2023-02-11T14:14:30.666Z,12.33
2023-02-11T14:17:06.576Z,15.10
2023-02-11T14:19:45.366Z,11.65
2023-02-11T14:22:40.146Z,12.85
2023-02-11T14:25:20.193Z,17.55
2023-02-11T14:28:22.171Z,13.93
2023-02-11T14:31:03.666Z,13.00
2023-02-11T14:34:05.171Z,11.93
2023-02-11T14:36:54.910Z,15.50
2023-02-11T14:39:55.989Z,15.48
2023-02-11T14:42:26.957Z,11.23
2023-02-11T14:44:57.722Z,14.02
2023-02-11T14:47:31.039Z,17.58
2023-02-11T14:49:58.344Z,11.32
2023-02-11T14:52:31.798Z,16.65
2023-02-11T14:55:23.755Z,12.83
2023-02-11T14:58:12.310Z,11.13
2023-02-11T15:00:48.592Z,18.23
2023-02-11T15:03:42.599Z,11.20
2023-02-11T15:06:24.047Z,22.83
2023-02-11T15:09:13.836Z,10.77
2023-02-11T15:11:43.005Z,10.63
2023-02-11T15:14:29.617Z,21.70
2023-02-11T15:17:02.124Z,18.10
2023-02-11T15:19:48.316Z,14.57
2023-02-11T15:22:22.176Z,19.03
2023-02-11T15:25:20.195Z,16.42
2023-02-11T15:27:56.511Z,17.17
2023-02-11T15:30:23.869Z,21.05
2023-02-11T15:32:53.695Z,27.80
2023-02-11T15:35:20.639Z,26.47
2023-02-11T15:37:50.498Z,20.20
2023-02-11T15:40:24.609Z,21.38
2023-02-11T15:43:02.900Z,15.23
2023-02-11T15:45:36.885Z,14.00
2023-02-11T15:48:23.238Z,17.20
2023-02-11T15:50:58.639Z,12.85
2023-02-11T15:53:40.392Z,12.73
2023-02-11T15:56:37.590Z,12.93
2023-02-11T15:59:18.969Z,17.48
2023-02-11T16:01:47.997Z,14.40
2023-02-11T16:04:20.739Z,15.00
2023-02-11T16:06:48.348Z,17.98
2023-02-11T16:09:15.495Z,15.20
2023-02-11T16:11:48.524Z,17.42
2023-02-11T16:14:31.077Z,21.33
2023-02-11T16:17:12.972Z,14.25
2023-02-11T16:19:48.831Z,15.80
2023-02-11T16:22:27.691Z,13.65
2023-02-11T16:24:59.382Z,20.38
2023-02-11T16:27:36.116Z,16.17
2023-02-11T16:30:03.386Z,22.00
2023-02-11T16:32:31.031Z,20.75
2023-02-11T16:35:00.732Z,17.08
2023-02-11T16:37:28.185Z,13.60
2023-02-11T16:40:00.805Z,12.87
2023-02-11T16:42:28.110Z,16.25
2023-02-11T16:44:55.486Z,13.75
2023-02-11T16:47:29.122Z,12.68
2023-02-11T16:49:57.609Z,16.65
2023-02-11T16:52:25.327Z,14.30
2023-02-11T16:54:52.580Z,12.30
2023-02-11T16:57:24.665Z,21.35
2023-02-11T16:59:52.339Z,18.27
2023-02-11T17:02:27.747Z,17.42
2023-02-11T17:04:56.596Z,18.40
2023-02-11T17:07:23.811Z,16.10
2023-02-11T17:09:52.217Z,15.77
2023-02-11T17:12:19.846Z,17.92
2023-02-11T17:14:47.261Z,18.80
2023-02-11T17:17:14.639Z,14.87
2023-02-11T17:19:41.886Z,18.55
2023-02-11T17:22:10.199Z,15.95
2023-02-11T17:24:37.354Z,13.18
2023-02-11T17:27:04.667Z,21.30
2023-02-11T17:29:31.641Z,16.20
2023-02-11T17:31:59.030Z,18.23
2023-02-11T17:34:29.090Z,13.77
2023-02-11T17:36:57.907Z,16.10
2023-02-11T17:39:24.812Z,14.88
2023-02-11T17:41:52.409Z,14.90
2023-02-11T17:44:19.725Z,12.63
2023-02-11T17:46:47.011Z,16.60
2023-02-11T17:49:14.277Z,18.48
2023-02-11T17:51:41.575Z,20.50
2023-02-11T17:54:12.520Z,22.67
2023-02-11T17:56:39.774Z,26.13
2023-02-11T17:59:08.529Z,15.57
2023-02-11T18:01:37.310Z,24.00
2023-02-11T18:04:05.033Z,30.80
2023-02-11T18:06:33.807Z,14.40
2023-02-11T18:09:04.069Z,17.13
2023-02-11T18:11:33.870Z,15.68
2023-02-11T18:14:08.136Z,21.23
2023-02-11T18:16:38.955Z,19.60
2023-02-11T18:19:07.766Z,26.13
2023-02-11T18:21:35.097Z,27.13
2023-02-11T18:24:06.488Z,33.20
2023-02-11T18:26:34.483Z,20.13
2023-02-11T18:29:01.892Z,17.83
2023-02-11T18:31:29.330Z,20.67
2023-02-11T18:33:56.621Z,18.00
2023-02-11T18:36:23.900Z,23.05
2023-02-11T18:38:53.301Z,22.70
2023-02-11T18:41:20.815Z,15.95
2023-02-11T18:43:48.490Z,20.07
2023-02-11T18:46:16.225Z,18.58
2023-02-11T18:48:44.850Z,15.25
2023-02-11T18:51:15.158Z,17.40
2023-02-11T18:53:43.083Z,25.60
2023-02-11T18:56:13.395Z,19.53
2023-02-11T18:58:40.703Z,21.15
2023-02-11T19:01:27.162Z,22.15
2023-02-11T19:03:55.758Z,21.95
2023-02-11T19:06:28.167Z,20.33
2023-02-11T19:08:59.686Z,19.33
2023-02-11T19:11:46.076Z,21.48
2023-02-11T19:14:14.515Z,20.80
2023-02-11T19:16:43.694Z,23.20
2023-02-11T19:19:11.044Z,20.55
2023-02-11T19:21:38.307Z,20.93
2023-02-11T19:24:08.804Z,20.25
2023-02-11T19:26:36.775Z,26.67
2023-02-11T19:29:05.844Z,21.98
2023-02-11T19:31:33.581Z,22.65
2023-02-11T19:34:01.799Z,23.40
2023-02-11T19:36:29.339Z,25.90
2023-02-11T19:38:56.870Z,23.55
2023-02-11T19:41:23.818Z,23.42
2023-02-11T19:43:52.849Z,21.67
2023-02-11T19:46:23.651Z,21.87
2023-02-11T19:48:51.621Z,22.85
2023-02-11T19:51:19.335Z,21.27
2023-02-11T19:53:47.383Z,27.13
2023-02-11T19:56:15.480Z,22.27
2023-02-11T19:58:43.171Z,22.43
2023-02-11T20:01:13.935Z,22.23
2023-02-11T20:03:42.561Z,21.80
2023-02-11T20:06:13.309Z,23.00
2023-02-11T20:08:40.912Z,21.25
2023-02-11T20:11:14.300Z,25.63
2023-02-11T20:13:41.769Z,26.67
2023-02-11T20:16:14.544Z,29.35
2023-02-11T20:18:42.138Z,22.23
2023-02-11T20:21:18.273Z,27.80
2023-02-11T20:23:46.582Z,27.43
2023-02-11T20:26:33.563Z,22.63
2023-02-11T20:29:02.313Z,21.60
2023-02-11T20:31:32.225Z,27.98
2023-02-11T20:33:59.855Z,30.63
2023-02-11T20:36:31.969Z,24.20
2023-02-11T20:39:00.204Z,28.65
2023-02-11T20:41:32.511Z,30.63
2023-02-11T20:44:02.748Z,24.20
2023-02-11T20:46:31.495Z,23.65
2023-02-11T20:48:59.052Z,26.00
2023-02-11T20:51:29.671Z,27.38
2023-02-11T20:53:57.111Z,27.88
2023-02-11T20:56:30.249Z,28.35
2023-02-11T20:58:58.789Z,25.58
2023-02-11T21:01:32.389Z,29.77
2023-02-11T21:04:02.521Z,33.60
2023-02-11T21:06:35.910Z,28.55
2023-02-11T21:09:04.619Z,29.13
2023-02-11T21:11:31.921Z,28.55
2023-02-11T21:13:59.216Z,31.53
2023-02-11T21:16:26.760Z,29.13
2023-02-11T21:18:55.399Z,28.00
2023-02-11T21:21:22.767Z,32.03
2023-02-11T21:23:50.076Z,42.45
2023-02-11T21:26:17.290Z,26.43
2023-02-11T21:28:44.794Z,22.90
2023-02-11T21:31:26.205Z,24.52
2023-02-11T21:33:55.337Z,25.60
2023-02-11T21:36:23.620Z,25.35
2023-02-11T21:38:51.096Z,27.03
2023-02-11T21:41:21.144Z,34.38
2023-02-11T21:43:48.799Z,35.90
2023-02-11T21:46:17.150Z,33.38
2023-02-11T21:48:44.190Z,37.22
2023-02-11T21:51:19.821Z,27.07
2023-02-11T21:53:47.102Z,26.73
2023-02-11T21:56:16.975Z,24.83
2023-02-11T21:58:45.076Z,30.83
2023-02-11T22:01:21.058Z,31.23
2023-02-11T22:03:48.614Z,34.13
2023-02-11T22:06:21.652Z,32.10
2023-02-11T22:08:49.982Z,24.73
2023-02-11T22:11:17.217Z,27.38
2023-02-11T22:13:44.415Z,33.00
2023-02-11T22:16:14.460Z,26.50
2023-02-11T22:18:42.200Z,27.27
2023-02-11T22:21:15.263Z,28.13
2023-02-11T22:23:42.245Z,28.65
2023-02-11T22:26:12.352Z,26.08
2023-02-11T22:28:40.783Z,27.23
2023-02-11T22:31:11.617Z,30.83
2023-02-11T22:33:38.902Z,31.98
2023-02-11T22:36:09.261Z,29.50
2023-02-11T22:38:36.762Z,30.83
2023-02-11T22:41:08.693Z,32.53
2023-02-11T22:43:36.329Z,26.58
2023-02-11T22:46:05.219Z,31.48
2023-02-11T22:48:32.795Z,23.65
2023-02-11T22:51:15.465Z,27.08
2023-02-11T22:53:43.698Z,26.83
2023-02-11T22:56:15.613Z,26.40
2023-02-11T22:58:42.995Z,25.02
2023-02-11T23:01:10.558Z,26.23
2023-02-11T23:03:37.553Z,19.77
2023-02-11T23:06:04.867Z,23.00
2023-02-11T23:08:32.266Z,23.38
2023-02-11T23:11:26.381Z,26.77
2023-02-11T23:13:54.155Z,23.73
2023-02-11T23:16:27.549Z,21.00
2023-02-11T23:18:55.070Z,22.33
2023-02-11T23:21:28.324Z,22.90
2023-02-11T23:24:01.090Z,29.33
2023-02-11T23:26:28.727Z,28.67
2023-02-11T23:28:56.575Z,23.95
2023-02-11T23:31:26.311Z,25.47
2023-02-11T23:33:53.903Z,25.60
2023-02-11T23:36:22.122Z,27.45
2023-02-11T23:38:49.191Z,24.45
2023-02-11T23:41:16.855Z,25.75
2023-02-11T23:43:43.825Z,28.00
2023-02-11T23:46:11.521Z,26.85
2023-02-11T23:48:40.283Z,29.98
2023-02-11T23:51:09.548Z,23.70
2023-02-11T23:53:38.193Z,25.25
2023-02-11T23:56:17.818Z,31.13
2023-02-11T23:58:46.526Z,26.27
